Time;durP1;ratioP1;P1;durP2;ratioP2;P2;SDS_P1;SDS_P2;PMS_P1;PMS_P2;Temp;Humidity;BMP_temperature;BMP_pressure;BME280_temperature;BME280_humidity;BME280_pressure;Samples;Min_cycle;Max_cycle;Signal;HPM_P1;HPM_P2
2022/06/02 00:00:14;;;;;;;7.35;5.40;;;;;;;;;;4866828;29;20036;-60
2022/06/02 00:02:58;;;;;;;8.40;4.97;;;;;;;;;;4868219;29;20040;-61
2022/06/02 00:05:28;;;;;;;6.20;4.32;;;;;;;;;;4868427;29;20166;-61
2022/06/02 00:08:15;;;;;;;6.25;4.35;;;;;;;;;;4865907;29;20047;-61
2022/06/02 00:10:44;;;;;;;8.10;4.60;;;;;;;;;;4864834;29;20119;-61
2022/06/02 00:13:22;;;;;;;6.10;4.00;;;;;;;;;;4864615;29;20047;-59
2022/06/02 00:15:52;;;;;;;5.78;4.38;;;;;;;;;;4867506;29;20124;-61
2022/06/02 00:18:20;;;;;;;8.30;4.25;;;;;;;;;;4845186;29;20162;-60
2022/06/02 00:20:55;;;;;;;5.18;4.60;;;;;;;;;;4845392;29;20470;-60
2022/06/02 00:23:39;;;;;;;8.38;4.75;;;;;;;;;;4867011;29;20044;-60
2022/06/02 00:26:23;;;;;;;7.32;4.43;;;;;;;;;;4867353;29;20048;-60
2022/06/02 00:28:48;;;;;;;5.72;4.63;;;;;;;;;;4865090;29;20074;-60
2022/06/02 00:31:20;;;;;;;6.13;4.50;;;;;;;;;;4865964;29;20135;-60
2022/06/02 00:34:01;;;;;;;5.53;4.90;;;;;;;;;;4867046;29;20044;-60
2022/06/02 00:36:38;;;;;;;7.68;5.05;;;;;;;;;;4866994;29;20036;-60
2022/06/02 00:39:04;;;;;;;8.13;5.82;;;;;;;;;;4862762;29;20048;-60
2022/06/02 00:41:46;;;;;;;7.97;5.95;;;;;;;;;;4867735;29;20147;-60
2022/06/02 00:44:27;;;;;;;7.35;5.47;;;;;;;;;;4865949;29;20055;-60
2022/06/02 00:47:01;;;;;;;9.85;5.97;;;;;;;;;;4869136;29;20039;-60
2022/06/02 00:49:38;;;;;;;7.93;6.15;;;;;;;;;;4868933;29;20119;-60
2022/06/02 00:52:09;;;;;;;8.25;6.15;;;;;;;;;;4868613;29;20112;-60
2022/06/02 00:57:32;;;;;;;9.50;7.20;;;;;;;;;;4869751;29;20036;-60
2022/06/02 01:00:12;;;;;;;9.95;6.88;;;;;;;;;;4868284;29;20079;-61
2022/06/02 01:02:55;;;;;;;8.13;6.82;;;;;;;;;;4865835;29;20143;-60
2022/06/02 01:05:39;;;;;;;11.00;7.80;;;;;;;;;;4861535;29;20036;-60
2022/06/02 01:08:07;;;;;;;11.10;7.45;;;;;;;;;;4867977;29;20850;-59
2022/06/02 01:11:00;;;;;;;9.20;8.15;;;;;;;;;;4867435;29;20087;-62
2022/06/02 01:13:34;;;;;;;8.23;7.43;;;;;;;;;;4864147;29;20040;-63
2022/06/02 01:16:07;;;;;;;9.10;7.32;;;;;;;;;;4867693;29;20114;-63
2022/06/02 01:18:35;;;;;;;11.68;8.18;;;;;;;;;;4868029;29;20143;-63
2022/06/02 01:21:11;;;;;;;9.85;7.53;;;;;;;;;;4867130;29;20079;-63
2022/06/02 01:23:45;;;;;;;8.65;7.43;;;;;;;;;;4865874;29;20131;-63
2022/06/02 01:26:30;;;;;;;9.35;7.25;;;;;;;;;;4868822;29;20063;-63
2022/06/02 01:29:00;;;;;;;8.52;6.82;;;;;;;;;;4866538;29;20047;-63
2022/06/02 01:31:44;;;;;;;10.88;7.38;;;;;;;;;;4867827;29;20171;-62
2022/06/02 01:34:12;;;;;;;12.57;8.27;;;;;;;;;;4865648;29;20485;-63
2022/06/02 01:36:56;;;;;;;10.52;8.50;;;;;;;;;;4867694;29;20031;-63
2022/06/02 01:39:21;;;;;;;9.95;7.50;;;;;;;;;;4867657;29;20048;-63
2022/06/02 01:41:53;;;;;;;9.02;7.00;;;;;;;;;;4868520;29;20179;-63
2022/06/02 01:44:20;;;;;;;9.73;6.93;;;;;;;;;;4858478;29;20139;-63
2022/06/02 01:46:55;;;;;;;9.50;6.90;;;;;;;;;;4867583;29;20047;-63
2022/06/02 01:49:23;;;;;;;12.30;7.30;;;;;;;;;;4867797;29;20704;-63
2022/06/02 01:52:07;;;;;;;9.48;6.15;;;;;;;;;;4869731;29;20184;-63
2022/06/02 01:54:35;;;;;;;7.78;6.40;;;;;;;;;;4858459;29;20037;-63
2022/06/02 01:57:09;;;;;;;10.20;6.90;;;;;;;;;;4852319;29;20044;-63
2022/06/02 01:59:42;;;;;;;10.02;6.40;;;;;;;;;;4868117;29;20047;-63
2022/06/02 02:02:22;;;;;;;7.85;5.88;;;;;;;;;;4833026;29;20115;-63
2022/06/02 02:05:00;;;;;;;10.25;5.80;;;;;;;;;;4863374;29;20135;-60
2022/06/02 02:07:25;;;;;;;14.73;7.63;;;;;;;;;;4868431;29;20928;-60
2022/06/02 02:10:09;;;;;;;10.85;6.70;;;;;;;;;;4870419;29;20040;-60
2022/06/02 02:12:43;;;;;;;11.18;6.53;;;;;;;;;;4867153;29;20048;-60
2022/06/02 02:15:16;;;;;;;9.07;6.13;;;;;;;;;;4868527;29;20151;-60
2022/06/02 02:17:49;;;;;;;11.25;7.13;;;;;;;;;;4869969;29;20127;-62
2022/06/02 02:20:23;;;;;;;10.35;7.70;;;;;;;;;;4868159;29;20040;-60
2022/06/02 02:22:54;;;;;;;9.65;6.93;;;;;;;;;;4866897;29;20226;-61
2022/06/02 02:25:34;;;;;;;13.27;6.80;;;;;;;;;;4860348;29;20158;-60
2022/06/02 02:28:07;;;;;;;8.75;6.75;;;;;;;;;;4867809;29;20043;-61
2022/06/02 02:30:45;;;;;;;12.98;6.68;;;;;;;;;;4864374;29;20035;-60
2022/06/02 02:33:19;;;;;;;11.82;6.20;;;;;;;;;;4846809;29;20128;-60
2022/06/02 02:35:59;;;;;;;11.35;6.60;;;;;;;;;;4868392;29;20032;-61
2022/06/02 02:38:36;;;;;;;9.05;6.72;;;;;;;;;;4865014;29;20052;-61
2022/06/02 02:41:04;;;;;;;9.18;6.72;;;;;;;;;;4868001;29;20040;-61
2022/06/02 02:43:36;;;;;;;8.23;6.68;;;;;;;;;;4866526;29;20040;-61
2022/06/02 02:46:01;;;;;;;10.85;7.07;;;;;;;;;;4866914;29;20051;-60
2022/06/02 02:48:56;;;;;;;8.70;6.60;;;;;;;;;;4868594;29;20075;-61
2022/06/02 02:51:50;;;;;;;8.40;6.72;;;;;;;;;;4849718;29;20161;-60
2022/06/02 02:54:26;;;;;;;7.47;6.57;;;;;;;;;;4864665;29;20039;-61
2022/06/02 02:57:10;;;;;;;10.35;6.78;;;;;;;;;;4868001;29;20142;-60
2022/06/02 03:00:07;;;;;;;11.18;6.30;;;;;;;;;;4867535;29;20071;-60
2022/06/02 03:02:35;;;;;;;6.72;5.70;;;;;;;;;;4815984;29;20770;-61
2022/06/02 03:05:05;;;;;;;11.38;6.13;;;;;;;;;;4865362;29;20047;-61
2022/06/02 03:07:31;;;;;;;11.13;7.25;;;;;;;;;;4868302;29;20037;-60
2022/06/02 03:10:15;;;;;;;9.07;6.05;;;;;;;;;;4867774;29;20044;-62
2022/06/02 03:12:55;;;;;;;8.52;5.63;;;;;;;;;;4868114;29;20853;-62
2022/06/02 03:15:28;;;;;;;9.43;5.70;;;;;;;;;;4867059;29;20040;-62
2022/06/02 03:18:19;;;;;;;7.10;5.75;;;;;;;;;;4867591;29;20054;-63
2022/06/02 03:20:56;;;;;;;9.63;6.05;;;;;;;;;;4843558;29;20044;-63
2022/06/02 03:23:38;;;;;;;8.38;5.50;;;;;;;;;;4867538;29;20090;-63
2022/06/02 03:26:16;;;;;;;6.28;5.05;;;;;;;;;;4866509;29;20051;-65
2022/06/02 03:28:57;;;;;;;16.60;5.93;;;;;;;;;;4865053;29;20040;-62
2022/06/02 03:31:40;;;;;;;9.05;5.63;;;;;;;;;;4866701;29;20040;-63
2022/06/02 03:34:17;;;;;;;8.30;5.47;;;;;;;;;;4865171;29;20167;-63
2022/06/02 03:37:02;;;;;;;9.20;5.97;;;;;;;;;;4867463;29;20044;-63
2022/06/02 03:39:40;;;;;;;7.60;5.50;;;;;;;;;;4866811;29;20116;-64
2022/06/02 03:42:14;;;;;;;11.15;6.13;;;;;;;;;;4867117;29;20143;-63
2022/06/02 03:44:43;;;;;;;10.13;6.18;;;;;;;;;;4867219;29;20790;-63
2022/06/02 03:47:28;;;;;;;9.95;6.20;;;;;;;;;;4866295;29;20044;-63
2022/06/02 03:49:53;;;;;;;9.35;5.88;;;;;;;;;;4866663;29;20623;-63
2022/06/02 03:52:44;;;;;;;8.68;5.63;;;;;;;;;;4868191;29;20155;-64
2022/06/02 03:55:19;;;;;;;9.25;5.35;;;;;;;;;;4867346;29;20629;-64
2022/06/02 03:57:58;;;;;;;8.32;5.03;;;;;;;;;;4847610;29;20135;-64
2022/06/02 04:00:28;;;;;;;6.93;4.45;;;;;;;;;;4866165;29;20044;-64
2022/06/02 04:02:58;;;;;;;8.25;4.50;;;;;;;;;;4864477;29;20163;-64
2022/06/02 04:05:31;;;;;;;8.50;4.63;;;;;;;;;;4866231;29;20040;-63
2022/06/02 04:08:02;;;;;;;6.65;4.32;;;;;;;;;;4867170;29;20040;-64
2022/06/02 04:10:34;;;;;;;6.57;4.00;;;;;;;;;;4846358;29;20056;-64
2022/06/02 04:15:48;;;;;;;6.32;3.85;;;;;;;;;;4867769;29;19915;-64
2022/06/02 04:18:16;;;;;;;8.07;4.15;;;;;;;;;;4845273;29;20878;-64
2022/06/02 04:20:48;;;;;;;7.70;3.80;;;;;;;;;;4865851;29;21145;-63
2022/06/02 04:23:32;;;;;;;6.43;3.85;;;;;;;;;;4848713;29;20040;-63
2022/06/02 04:26:16;;;;;;;7.15;3.50;;;;;;;;;;4865658;29;21066;-63
2022/06/02 04:29:01;;;;;;;5.88;3.53;;;;;;;;;;4865866;29;20070;-63
2022/06/02 04:31:32;;;;;;;8.65;3.67;;;;;;;;;;4864052;29;20104;-63
2022/06/02 04:34:17;;;;;;;5.30;2.90;;;;;;;;;;4864811;29;20040;-63
2022/06/02 04:36:55;;;;;;;5.90;2.80;;;;;;;;;;4867250;29;20039;-63
2022/06/02 04:39:39;;;;;;;6.80;2.42;;;;;;;;;;4866794;29;20746;-63
2022/06/02 04:42:16;;;;;;;7.00;2.60;;;;;;;;;;4865830;29;20801;-61
2022/06/02 04:44:53;;;;;;;4.20;2.30;;;;;;;;;;4843678;29;20044;-62
2022/06/02 04:47:25;;;;;;;5.15;2.10;;;;;;;;;;4866862;29;20039;-63
2022/06/02 04:50:07;;;;;;;5.05;1.80;;;;;;;;;;4864744;29;20040;-62
2022/06/02 04:52:48;;;;;;;4.85;1.75;;;;;;;;;;4865506;29;20039;-62
2022/06/02 04:55:17;;;;;;;4.80;1.77;;;;;;;;;;4862222;29;20036;-63
2022/06/02 04:57:50;;;;;;;5.18;1.60;;;;;;;;;;4864736;29;20976;-63
2022/06/02 05:00:21;;;;;;;5.55;1.65;;;;;;;;;;4866765;29;20168;-63
2022/06/02 05:03:05;;;;;;;3.45;1.60;;;;;;;;;;4863427;29;20119;-63
2022/06/02 05:05:40;;;;;;;2.90;1.50;;;;;;;;;;4865261;29;20516;-63
2022/06/02 05:08:09;;;;;;;4.82;1.50;;;;;;;;;;4865714;29;20560;-62
2022/06/02 05:10:57;;;;;;;7.30;1.88;;;;;;;;;;4864262;29;20925;-63
2022/06/02 05:13:41;;;;;;;5.53;1.60;;;;;;;;;;4860410;29;20592;-63
2022/06/02 05:16:24;;;;;;;5.32;1.33;;;;;;;;;;4866960;29;20056;-63
2022/06/02 05:19:08;;;;;;;3.83;1.40;;;;;;;;;;4845940;29;20052;-63
2022/06/02 05:21:36;;;;;;;2.97;1.33;;;;;;;;;;4864861;29;20087;-64
2022/06/02 05:24:04;;;;;;;6.00;1.50;;;;;;;;;;4864183;29;20163;-63
2022/06/02 05:26:43;;;;;;;2.60;1.45;;;;;;;;;;4863500;29;20549;-64
2022/06/02 05:29:12;;;;;;;3.60;1.40;;;;;;;;;;4863711;29;20044;-64
2022/06/02 05:31:58;;;;;;;2.88;1.10;;;;;;;;;;4865843;29;20060;-63
2022/06/02 05:34:43;;;;;;;5.45;1.30;;;;;;;;;;4862485;29;20041;-63
2022/06/02 05:37:17;;;;;;;4.10;1.33;;;;;;;;;;4863570;29;20036;-62
2022/06/02 05:39:43;;;;;;;2.63;1.05;;;;;;;;;;4863357;29;20040;-62
2022/06/02 05:42:26;;;;;;;2.40;0.98;;;;;;;;;;4865374;29;20044;-63
2022/06/02 05:44:52;;;;;;;4.32;1.13;;;;;;;;;;4863312;29;20044;-62
2022/06/02 05:47:35;;;;;;;3.05;1.40;;;;;;;;;;4863286;29;20051;-62
2022/06/02 05:50:20;;;;;;;4.15;1.15;;;;;;;;;;4863673;29;20243;-63
2022/06/02 05:52:52;;;;;;;4.00;1.00;;;;;;;;;;4848917;29;21214;-62
2022/06/02 05:55:30;;;;;;;2.78;1.10;;;;;;;;;;4850802;29;20147;-63
2022/06/02 05:58:08;;;;;;;2.03;1.00;;;;;;;;;;4858400;29;20044;-64
2022/06/02 06:00:35;;;;;;;2.80;0.70;;;;;;;;;;4859310;29;20132;-63
2022/06/02 06:03:09;;;;;;;2.30;0.80;;;;;;;;;;4857635;29;20048;-63
2022/06/02 06:05:46;;;;;;;2.53;0.90;;;;;;;;;;4862815;29;22693;-64
2022/06/02 06:08:15;;;;;;;3.90;0.90;;;;;;;;;;4864543;29;20968;-63
2022/06/02 06:10:43;;;;;;;2.78;0.90;;;;;;;;;;4863678;29;22259;-63
2022/06/02 06:13:11;;;;;;;2.75;0.90;;;;;;;;;;4865466;29;20032;-63
2022/06/02 06:15:43;;;;;;;2.38;0.90;;;;;;;;;;4863754;29;20594;-63
2022/06/02 06:18:19;;;;;;;3.05;0.95;;;;;;;;;;4842389;29;20105;-63
2022/06/02 06:21:04;;;;;;;2.28;0.80;;;;;;;;;;4862142;29;20047;-63
2022/06/02 06:23:41;;;;;;;3.08;1.10;;;;;;;;;;4862823;29;20036;-63
2022/06/02 06:26:25;;;;;;;1.73;0.80;;;;;;;;;;4864925;29;20078;-63
2022/06/02 06:29:16;;;;;;;2.28;1.00;;;;;;;;;;4865584;29;20764;-63
2022/06/02 06:31:49;;;;;;;2.72;1.00;;;;;;;;;;4821743;29;20070;-61
2022/06/02 06:34:22;;;;;;;2.42;0.90;;;;;;;;;;4864914;29;20117;-62
2022/06/02 06:36:50;;;;;;;2.28;0.90;;;;;;;;;;4866194;29;20042;-61
2022/06/02 06:39:39;;;;;;;4.07;0.93;;;;;;;;;;4865260;29;20057;-63
2022/06/02 06:42:23;;;;;;;2.92;0.90;;;;;;;;;;4863882;29;20044;-63
2022/06/02 06:44:52;;;;;;;4.03;0.80;;;;;;;;;;4865468;29;20779;-64
2022/06/02 06:47:21;;;;;;;3.58;0.90;;;;;;;;;;4859417;29;20536;-63
2022/06/02 06:49:55;;;;;;;3.35;0.88;;;;;;;;;;4865078;29;20564;-62
2022/06/02 06:52:33;;;;;;;1.30;0.60;;;;;;;;;;4863869;29;20036;-62
2022/06/02 06:55:04;;;;;;;2.63;0.75;;;;;;;;;;4865629;29;20040;-63
2022/06/02 06:57:48;;;;;;;2.97;0.73;;;;;;;;;;4865474;29;20429;-63
2022/06/02 07:00:21;;;;;;;3.60;0.80;;;;;;;;;;4863849;29;20072;-63
2022/06/02 07:02:53;;;;;;;1.85;0.70;;;;;;;;;;4864611;29;20131;-63
2022/06/02 07:05:22;;;;;;;1.80;0.82;;;;;;;;;;4863488;29;20202;-63
2022/06/02 07:07:48;;;;;;;3.03;0.90;;;;;;;;;;4865358;29;20136;-63
2022/06/02 07:10:14;;;;;;;1.35;0.70;;;;;;;;;;4865172;29;20333;-63
2022/06/02 07:13:02;;;;;;;2.75;0.93;;;;;;;;;;4864506;29;20497;-63
2022/06/02 07:15:27;;;;;;;2.10;0.80;;;;;;;;;;4817469;29;20170;-63
2022/06/02 07:18:00;;;;;;;3.28;1.00;;;;;;;;;;4863492;29;20046;-63
2022/06/02 07:20:30;;;;;;;2.65;0.70;;;;;;;;;;4864533;29;20132;-62
2022/06/02 07:23:01;;;;;;;1.75;0.60;;;;;;;;;;4848680;29;20044;-63
2022/06/02 07:25:30;;;;;;;2.45;0.77;;;;;;;;;;4862909;29;20047;-63
2022/06/02 07:28:14;;;;;;;1.27;0.70;;;;;;;;;;4864389;29;20964;-62
2022/06/02 07:30:51;;;;;;;1.83;0.75;;;;;;;;;;4864819;29;20044;-63
2022/06/02 07:33:28;;;;;;;3.55;0.90;;;;;;;;;;4862827;29;20040;-64
2022/06/02 07:36:21;;;;;;;1.98;0.60;;;;;;;;;;4847648;29;20940;-63
2022/06/02 07:39:03;;;;;;;2.40;1.00;;;;;;;;;;4862154;29;20047;-64
2022/06/02 07:41:31;;;;;;;2.28;0.80;;;;;;;;;;4865030;29;20093;-63
2022/06/02 07:44:11;;;;;;;2.83;0.90;;;;;;;;;;4866966;29;20040;-64
2022/06/02 07:46:55;;;;;;;2.47;0.70;;;;;;;;;;4866079;29;20075;-63
2022/06/02 07:49:31;;;;;;;3.25;0.73;;;;;;;;;;4845058;29;20036;-63
2022/06/02 07:51:56;;;;;;;2.25;0.60;;;;;;;;;;4867553;29;20032;-63
2022/06/02 07:54:31;;;;;;;2.70;0.90;;;;;;;;;;4862045;29;20087;-63
2022/06/02 07:57:08;;;;;;;1.48;0.73;;;;;;;;;;4850186;29;20063;-64
2022/06/02 07:59:46;;;;;;;1.08;0.60;;;;;;;;;;4866194;29;20043;-64
2022/06/02 08:02:36;;;;;;;1.63;0.60;;;;;;;;;;4846062;29;20119;-64
2022/06/02 08:05:01;;;;;;;3.25;0.95;;;;;;;;;;4864633;29;20052;-64
2022/06/02 08:07:29;;;;;;;2.92;0.80;;;;;;;;;;4866660;29;20052;-65
2022/06/02 08:10:11;;;;;;;1.77;0.68;;;;;;;;;;4865449;29;20113;-65
2022/06/02 08:12:39;;;;;;;2.83;0.55;;;;;;;;;;4848619;29;20138;-64
2022/06/02 08:15:13;;;;;;;1.10;0.70;;;;;;;;;;4866124;29;20115;-64
2022/06/02 08:17:57;;;;;;;3.20;0.60;;;;;;;;;;4867621;29;21913;-65
2022/06/02 08:20:32;;;;;;;2.65;0.73;;;;;;;;;;4864323;29;20036;-65
2022/06/02 08:23:20;;;;;;;2.15;0.70;;;;;;;;;;4865482;29;20046;-67
2022/06/02 08:25:50;;;;;;;3.22;0.80;;;;;;;;;;4820599;29;20973;-63
2022/06/02 08:28:16;;;;;;;3.25;0.80;;;;;;;;;;4866700;29;20036;-65
2022/06/02 08:30:46;;;;;;;2.50;0.70;;;;;;;;;;4866480;29;21150;-64
2022/06/02 08:33:18;;;;;;;3.38;0.90;;;;;;;;;;4865552;29;20046;-64
2022/06/02 08:35:47;;;;;;;2.97;0.90;;;;;;;;;;4866317;29;20044;-64
2022/06/02 08:38:24;;;;;;;2.17;0.70;;;;;;;;;;4866070;29;20087;-64
2022/06/02 08:40:52;;;;;;;3.22;0.80;;;;;;;;;;4867369;29;20040;-63
2022/06/02 08:43:19;;;;;;;1.70;0.70;;;;;;;;;;4861839;29;20063;-63
2022/06/02 08:45:54;;;;;;;3.20;0.70;;;;;;;;;;4865786;29;20052;-63
2022/06/02 08:48:38;;;;;;;1.67;0.60;;;;;;;;;;4864379;29;20040;-63
2022/06/02 08:51:09;;;;;;;2.50;0.88;;;;;;;;;;4865217;29;20039;-64
2022/06/02 08:53:35;;;;;;;;;;;;;;;;;;4865385;29;20142;-64
2022/06/02 08:56:19;;;;;;;2.57;0.70;;;;;;;;;;4865083;29;19919;-65
2022/06/02 08:59:11;;;;;;;2.40;0.70;;;;;;;;;;4866217;29;20135;-65
2022/06/02 09:01:56;;;;;;;1.80;1.00;;;;;;;;;;4865556;29;20044;-65
2022/06/02 09:04:40;;;;;;;2.25;0.88;;;;;;;;;;4864899;29;20143;-66
2022/06/02 09:07:11;;;;;;;2.55;1.05;;;;;;;;;;4864954;29;20109;-63
2022/06/02 09:09:55;;;;;;;6.32;0.80;;;;;;;;;;4841510;29;20091;-66
2022/06/02 09:12:30;;;;;;;1.98;0.60;;;;;;;;;;4868134;29;20158;-64
2022/06/02 09:15:13;;;;;;;1.63;0.70;;;;;;;;;;4845096;29;20159;-65
2022/06/02 09:17:39;;;;;;;;;;;;;;;;;;4867577;29;21182;-61
2022/06/02 09:20:14;;;;;;;1.85;1.00;;;;;;;;;;4864919;29;20067;-65
2022/06/02 09:22:45;;;;;;;2.85;1.00;;;;;;;;;;4866427;29;20047;-65
2022/06/02 09:25:18;;;;;;;1.92;0.90;;;;;;;;;;4865675;29;20071;-65
2022/06/02 09:27:55;;;;;;;1.52;0.68;;;;;;;;;;4866415;29;20036;-65
2022/06/02 09:30:36;;;;;;;2.08;0.90;;;;;;;;;;4864203;29;20186;-65
2022/06/02 09:33:33;;;;;;;2.13;0.88;;;;;;;;;;4864678;29;20059;-65
2022/06/02 09:35:59;;;;;;;3.25;0.90;;;;;;;;;;4858748;29;20548;-65
2022/06/02 09:38:38;;;;;;;4.00;0.90;;;;;;;;;;4862373;29;20079;-66
2022/06/02 09:41:07;;;;;;;3.60;1.10;;;;;;;;;;4867466;29;20966;-67
2022/06/02 09:43:44;;;;;;;2.28;0.80;;;;;;;;;;4868620;29;20107;-67
2022/06/02 09:46:14;;;;;;;1.65;0.88;;;;;;;;;;4843634;29;20067;-67
2022/06/02 09:48:45;;;;;;;3.08;0.95;;;;;;;;;;4867533;29;20036;-68
2022/06/02 09:51:22;;;;;;;1.45;0.70;;;;;;;;;;4862561;29;20189;-68
2022/06/02 09:54:04;;;;;;;1.80;0.90;;;;;;;;;;4846270;29;20043;-63
2022/06/02 09:56:43;;;;;;;4.28;1.38;;;;;;;;;;4867404;29;20131;-62
2022/06/02 09:59:10;;;;;;;2.17;1.05;;;;;;;;;;4868276;29;20131;-62
2022/06/02 10:01:38;;;;;;;2.92;0.90;;;;;;;;;;4867785;29;20972;-63
2022/06/02 10:04:22;;;;;;;3.95;1.00;;;;;;;;;;4854325;29;20051;-62
2022/06/02 10:07:10;;;;;;;2.35;0.80;;;;;;;;;;4869807;29;20068;-62
2022/06/02 10:09:42;;;;;;;4.05;0.90;;;;;;;;;;4871566;29;20032;-62
2022/06/02 10:15:00;;;;;;;4.03;0.95;;;;;;;;;;4868004;29;20034;-62
2022/06/02 10:17:29;;;;;;;1.90;0.95;;;;;;;;;;4868682;29;20040;-62
2022/06/02 10:20:29;;;;;;;3.78;0.80;;;;;;;;;;4868858;29;20855;-62
2022/06/02 10:23:00;;;;;;;3.30;0.88;;;;;;;;;;4810691;29;20044;-63
2022/06/02 10:25:38;;;;;;;2.38;1.13;;;;;;;;;;4836422;29;20050;-62
2022/06/02 10:28:06;;;;;;;2.97;0.90;;;;;;;;;;4860033;29;20036;-61
2022/06/02 10:30:32;;;;;;;3.05;0.95;;;;;;;;;;4866447;29;20205;-62
2022/06/02 10:33:10;;;;;;;2.15;0.90;;;;;;;;;;4861754;29;20032;-63
2022/06/02 10:36:00;;;;;;;3.25;0.95;;;;;;;;;;4865752;29;20037;-62
2022/06/02 10:38:33;;;;;;;5.25;0.90;;;;;;;;;;4864666;29;20044;-63
2022/06/02 10:41:07;;;;;;;2.90;0.90;;;;;;;;;;4866421;29;20040;-64
2022/06/02 10:43:33;;;;;;;3.13;0.85;;;;;;;;;;4868767;29;20910;-62
2022/06/02 10:46:10;;;;;;;2.25;0.95;;;;;;;;;;4869332;29;20104;-62
2022/06/02 10:48:42;;;;;;;2.20;0.90;;;;;;;;;;4865658;29;20701;-62
2022/06/02 10:51:07;;;;;;;;;;;;;;;;;;4866863;29;22384;-62
2022/06/02 10:53:35;;;;;;;2.53;0.73;;;;;;;;;;4869420;29;20466;-62
2022/06/02 10:56:03;;;;;;;1.75;1.00;;;;;;;;;;4861113;29;20900;-61
2022/06/02 10:58:29;;;;;;;3.20;1.08;;;;;;;;;;4864593;29;22461;-62
2022/06/02 11:01:23;;;;;;;2.45;0.95;;;;;;;;;;4864397;29;20210;-61
2022/06/02 11:03:57;;;;;;;2.38;1.00;;;;;;;;;;4859703;29;20051;-62
2022/06/02 11:06:56;;;;;;;2.20;0.80;;;;;;;;;;4862224;29;20560;-62
2022/06/02 11:09:42;;;;;;;2.40;1.02;;;;;;;;;;4866095;29;20032;-62
2022/06/02 11:12:13;;;;;;;2.05;0.90;;;;;;;;;;4865196;29;20115;-65
2022/06/02 11:15:00;;;;;;;3.75;1.10;;;;;;;;;;4866283;29;20032;-65
2022/06/02 11:17:35;;;;;;;1.55;0.90;;;;;;;;;;4867418;29;21108;-64
2022/06/02 11:20:09;;;;;;;2.60;0.95;;;;;;;;;;4863828;29;20036;-66
2022/06/02 11:22:54;;;;;;;2.15;0.80;;;;;;;;;;4847585;29;20174;-66
2022/06/02 11:25:30;;;;;;;2.63;0.90;;;;;;;;;;4863687;29;20056;-66
2022/06/02 11:28:16;;;;;;;2.55;1.08;;;;;;;;;;4863476;29;20040;-65
2022/06/02 11:30:50;;;;;;;2.47;0.90;;;;;;;;;;4840886;29;21105;-66
2022/06/02 11:33:27;;;;;;;2.45;1.00;;;;;;;;;;4864019;29;20115;-66
2022/06/02 11:36:12;;;;;;;2.97;1.00;;;;;;;;;;4857240;29;21057;-65
2022/06/02 11:38:40;;;;;;;4.07;1.10;;;;;;;;;;4857558;29;20937;-66
2022/06/02 11:41:17;;;;;;;3.70;0.82;;;;;;;;;;4864647;29;20116;-66
2022/06/02 11:44:00;;;;;;;2.33;1.10;;;;;;;;;;4865942;29;21103;-65
2022/06/02 11:46:28;;;;;;;3.05;0.80;;;;;;;;;;4860279;29;20171;-66
2022/06/02 11:48:58;;;;;;;3.22;1.00;;;;;;;;;;4862139;29;20068;-65
2022/06/02 11:51:39;;;;;;;2.90;0.90;;;;;;;;;;4865165;29;20040;-66
2022/06/02 11:54:23;;;;;;;2.88;0.80;;;;;;;;;;4862073;29;20796;-64
2022/06/02 11:57:00;;;;;;;1.80;0.88;;;;;;;;;;4866261;29;20048;-65
2022/06/02 11:59:45;;;;;;;3.35;0.90;;;;;;;;;;4863348;29;20044;-65
2022/06/02 12:02:29;;;;;;;3.40;0.80;;;;;;;;;;4866543;29;20037;-65
2022/06/02 12:05:05;;;;;;;1.80;0.80;;;;;;;;;;4864843;29;20619;-65
2022/06/02 12:07:30;;;;;;;1.45;0.90;;;;;;;;;;4847522;29;20773;-65
2022/06/02 12:10:09;;;;;;;2.55;1.10;;;;;;;;;;4860531;29;20036;-65
2022/06/02 12:12:44;;;;;;;2.78;0.90;;;;;;;;;;4868772;29;20043;-65
2022/06/02 12:15:22;;;;;;;3.22;1.25;;;;;;;;;;4848729;29;20128;-65
2022/06/02 12:18:10;;;;;;;3.35;1.00;;;;;;;;;;4845741;29;20774;-66
2022/06/02 12:20:46;;;;;;;2.97;1.10;;;;;;;;;;4846226;29;20074;-67
2022/06/02 12:23:18;;;;;;;2.45;1.00;;;;;;;;;;4864683;29;20041;-65
2022/06/02 12:25:58;;;;;;;2.92;0.98;;;;;;;;;;4861744;29;20051;-67
2022/06/02 12:28:39;;;;;;;4.28;1.10;;;;;;;;;;4866237;29;20139;-62
2022/06/02 12:31:23;;;;;;;1.95;1.10;;;;;;;;;;4864297;29;20037;-61
2022/06/02 12:34:18;;;;;;;2.47;1.20;;;;;;;;;;4860695;29;20040;-61
2022/06/02 12:36:53;;;;;;;1.83;1.08;;;;;;;;;;4860745;29;20383;-61
2022/06/02 12:39:37;;;;;;;2.13;0.90;;;;;;;;;;4843526;29;20784;-63
2022/06/02 12:42:20;;;;;;;3.00;1.10;;;;;;;;;;4843087;29;20057;-61
2022/06/02 12:44:54;;;;;;;2.47;1.00;;;;;;;;;;4842451;29;20076;-62
2022/06/02 12:47:46;;;;;;;1.88;1.00;;;;;;;;;;4843397;29;20593;-61
2022/06/02 12:50:25;;;;;;;4.10;1.10;;;;;;;;;;4838365;29;20585;-61
2022/06/02 12:53:08;;;;;;;3.30;1.17;;;;;;;;;;4840881;29;20096;-62
2022/06/02 12:55:34;;;;;;;3.63;1.27;;;;;;;;;;4839966;29;20048;-62
2022/06/02 12:58:11;;;;;;;3.03;1.00;;;;;;;;;;4842312;29;20052;-61
2022/06/02 13:00:54;;;;;;;2.15;1.20;;;;;;;;;;4840423;29;20029;-61
2022/06/02 13:03:46;;;;;;;2.20;1.15;;;;;;;;;;4840844;29;20049;-62
2022/06/02 13:06:32;;;;;;;2.42;1.10;;;;;;;;;;4836842;29;20159;-62
2022/06/02 13:09:18;;;;;;;3.75;1.10;;;;;;;;;;4802394;29;20386;-62
2022/06/02 13:11:59;;;;;;;4.22;1.05;;;;;;;;;;4838402;29;20124;-63
2022/06/02 13:14:44;;;;;;;3.03;1.00;;;;;;;;;;4839345;29;20363;-62
2022/06/02 13:17:21;;;;;;;1.95;1.02;;;;;;;;;;4842219;29;20108;-62
2022/06/02 13:20:05;;;;;;;3.40;1.10;;;;;;;;;;4843130;29;20032;-61
2022/06/02 13:22:49;;;;;;;4.90;1.27;;;;;;;;;;4841797;29;20040;-63
2022/06/02 13:25:29;;;;;;;3.78;1.00;;;;;;;;;;4838610;29;20573;-61
2022/06/02 13:28:06;;;;;;;3.92;1.00;;;;;;;;;;4839706;29;20292;-64
2022/06/02 13:30:43;;;;;;;3.13;1.00;;;;;;;;;;4805469;29;20387;-64
2022/06/02 13:33:27;;;;;;;2.92;0.98;;;;;;;;;;4840078;29;20335;-64
2022/06/02 13:35:58;;;;;;;3.40;1.00;;;;;;;;;;4841436;29;20047;-63
2022/06/02 13:38:26;;;;;;;3.00;1.00;;;;;;;;;;4849958;29;20357;-62
2022/06/02 13:41:20;;;;;;;1.63;0.80;;;;;;;;;;4866418;29;20135;-63
2022/06/02 13:43:48;;;;;;;2.53;1.27;;;;;;;;;;4845413;29;20167;-62
2022/06/02 13:46:27;;;;;;;2.22;1.10;;;;;;;;;;4864894;29;20445;-63
2022/06/02 13:48:58;;;;;;;6.05;1.30;;;;;;;;;;4845551;29;20252;-61
2022/06/02 13:51:42;;;;;;;1.80;1.13;;;;;;;;;;4865603;29;20044;-61
2022/06/02 14:00:01;;;;;;;1.92;0.82;;;;;;;;;;4863072;29;20766;-62
2022/06/02 14:02:39;;;;;;;3.03;1.10;;;;;;;;;;4864737;29;20497;-62
2022/06/02 14:05:30;;;;;;;3.78;0.80;;;;;;;;;;4863557;29;20327;-62
2022/06/02 14:08:16;;;;;;;1.55;0.90;;;;;;;;;;4823071;29;20048;-61
2022/06/02 14:10:57;;;;;;;2.55;1.00;;;;;;;;;;4864870;29;20052;-62
2022/06/02 14:13:37;;;;;;;2.53;0.90;;;;;;;;;;4862811;29;20032;-63
2022/06/02 14:16:06;;;;;;;3.22;1.00;;;;;;;;;;4863271;29;20778;-65
2022/06/02 14:18:50;;;;;;;1.98;0.90;;;;;;;;;;4865590;29;20861;-63
2022/06/02 14:21:21;;;;;;;2.55;0.90;;;;;;;;;;4865376;29;20028;-63
2022/06/02 14:23:52;;;;;;;1.60;0.85;;;;;;;;;;4864634;29;20069;-65
2022/06/02 14:26:21;;;;;;;2.75;0.80;;;;;;;;;;4866689;29;20048;-61
2022/06/02 14:28:52;;;;;;;1.75;0.80;;;;;;;;;;4865555;29;20161;-63
2022/06/02 14:31:36;;;;;;;4.28;1.00;;;;;;;;;;4867083;29;20040;-66
2022/06/02 14:34:11;;;;;;;3.05;1.10;;;;;;;;;;4865306;29;20048;-63
2022/06/02 14:36:55;;;;;;;3.08;1.00;;;;;;;;;;4847772;29;20079;-63
2022/06/02 14:39:20;;;;;;;3.35;1.10;;;;;;;;;;4866097;29;20136;-64
2022/06/02 14:41:59;;;;;;;2.60;1.15;;;;;;;;;;4866022;29;20786;-62
2022/06/02 14:44:28;;;;;;;4.00;1.27;;;;;;;;;;4867653;29;20047;-63
2022/06/02 14:46:54;;;;;;;2.30;1.00;;;;;;;;;;4865012;29;20608;-62
2022/06/02 14:49:29;;;;;;;2.70;1.10;;;;;;;;;;4862767;29;20050;-66
2022/06/02 14:52:21;;;;;;;2.15;0.90;;;;;;;;;;4841283;29;20044;-63
2022/06/02 14:55:03;;;;;;;2.88;0.90;;;;;;;;;;4865044;29;20040;-64
2022/06/02 14:57:28;;;;;;;1.27;0.90;;;;;;;;;;4862786;29;20333;-64
2022/06/02 14:59:59;;;;;;;3.65;1.10;;;;;;;;;;4867069;29;20037;-65
2022/06/02 15:02:43;;;;;;;3.22;1.02;;;;;;;;;;4862720;29;20164;-63
2022/06/02 15:05:19;;;;;;;1.73;1.00;;;;;;;;;;4858607;29;20718;-65
2022/06/02 15:08:03;;;;;;;2.17;1.10;;;;;;;;;;4863857;29;20036;-63
2022/06/02 15:10:40;;;;;;;2.50;1.05;;;;;;;;;;4860954;29;21955;-63
2022/06/02 15:13:20;;;;;;;4.72;1.40;;;;;;;;;;4861065;29;20103;-63
2022/06/02 15:15:53;;;;;;;3.67;1.15;;;;;;;;;;4862650;29;20040;-64
2022/06/02 15:18:37;;;;;;;2.40;1.20;;;;;;;;;;4864652;29;20151;-65
2022/06/02 15:21:17;;;;;;;2.03;0.88;;;;;;;;;;4864545;29;20939;-65
2022/06/02 15:24:03;;;;;;;3.13;1.00;;;;;;;;;;4859735;29;20155;-65
2022/06/02 15:26:48;;;;;;;3.97;0.90;;;;;;;;;;4863998;29;20131;-65
2022/06/02 15:29:32;;;;;;;2.28;1.00;;;;;;;;;;4865835;29;20040;-63
2022/06/02 15:32:15;;;;;;;3.15;0.90;;;;;;;;;;4866028;29;20106;-63
2022/06/02 15:34:40;;;;;;;1.45;0.88;;;;;;;;;;4852813;29;20504;-64
2022/06/02 15:37:24;;;;;;;4.10;1.00;;;;;;;;;;4861393;29;20068;-64
2022/06/02 15:40:08;;;;;;;1.58;0.90;;;;;;;;;;4863299;29;20187;-65
2022/06/02 15:42:36;;;;;;;2.67;0.90;;;;;;;;;;4864171;29;20059;-64
2022/06/02 15:45:01;;;;;;;1.20;0.73;;;;;;;;;;4864429;29;20095;-65
2022/06/02 15:47:42;;;;;;;3.10;0.90;;;;;;;;;;4845277;29;20205;-61
2022/06/02 15:50:14;;;;;;;4.25;0.90;;;;;;;;;;4864910;29;20154;-61
2022/06/02 15:52:39;;;;;;;;;;;;;;;;;;4865028;29;20040;-63